Terminal Aerodrome Forecast
Issued by NWS

Home | Current Version | Previous Version | Text Only | Print | Product List | Glossary On
Versions: 1 2 3 4 5 6 7 8 9 10 11 12 13 14 15 16
000
FTUS41 KPHI 190500
TAFPNE
TAF
KPNE 190527Z 1906/2006 01006KT P6SM FEW080
     FM191300 05010KT P6SM SCT060
     FM191800 10009KT P6SM SCT060
     FM200300 09007KT P6SM BKN040=

USA.gov is the U.S. government's official web portal to all federal, state and local government web resources and services.